sensor_id;sensor_type;location;lat;lon;timestamp;P1;durP1;ratioP1;P2;durP2;ratioP2
25091;SDS011;13082;52.374;4.946;2022-10-31T00:01:57;5.83;;;3.80;;
25091;SDS011;13082;52.374;4.946;2022-10-31T00:04:23;8.57;;;3.83;;
25091;SDS011;13082;52.374;4.946;2022-10-31T00:06:49;6.17;;;3.50;;
25091;SDS011;13082;52.374;4.946;2022-10-31T00:09:14;4.00;;;3.50;;
25091;SDS011;13082;52.374;4.946;2022-10-31T00:11:40;4.43;;;3.40;;
25091;SDS011;13082;52.374;4.946;2022-10-31T00:14:05;7.97;;;4.17;;
25091;SDS011;13082;52.374;4.946;2022-10-31T00:16:31;5.03;;;3.70;;
25091;SDS011;13082;52.374;4.946;2022-10-31T00:18:58;9.57;;;4.27;;
25091;SDS011;13082;52.374;4.946;2022-10-31T00:21:25;4.70;;;4.30;;
25091;SDS011;13082;52.374;4.946;2022-10-31T00:23:51;4.10;;;3.40;;
25091;SDS011;13082;52.374;4.946;2022-10-31T00:26:17;6.03;;;4.00;;
25091;SDS011;13082;52.374;4.946;2022-10-31T00:28:43;7.73;;;3.83;;
25091;SDS011;13082;52.374;4.946;2022-10-31T00:31:10;5.93;;;3.40;;
25091;SDS011;13082;52.374;4.946;2022-10-31T00:33:37;6.53;;;3.80;;
25091;SDS011;13082;52.374;4.946;2022-10-31T00:36:04;6.63;;;3.37;;
25091;SDS011;13082;52.374;4.946;2022-10-31T00:38:31;4.60;;;3.77;;
25091;SDS011;13082;52.374;4.946;2022-10-31T00:40:57;5.80;;;4.07;;
25091;SDS011;13082;52.374;4.946;2022-10-31T00:43:23;3.93;;;3.03;;
25091;SDS011;13082;52.374;4.946;2022-10-31T00:45:48;5.90;;;3.70;;
25091;SDS011;13082;52.374;4.946;2022-10-31T00:48:14;3.90;;;3.40;;
25091;SDS011;13082;52.374;4.946;2022-10-31T00:50:39;5.20;;;3.50;;
25091;SDS011;13082;52.374;4.946;2022-10-31T00:53:05;4.13;;;3.37;;
25091;SDS011;13082;52.374;4.946;2022-10-31T00:55:31;7.30;;;4.07;;
25091;SDS011;13082;52.374;4.946;2022-10-31T00:57:57;6.50;;;4.30;;
25091;SDS011;13082;52.374;4.946;2022-10-31T01:00:22;5.50;;;3.83;;
25091;SDS011;13082;52.374;4.946;2022-10-31T01:02:48;4.00;;;3.53;;
25091;SDS011;13082;52.374;4.946;2022-10-31T01:05:14;5.33;;;3.47;;
25091;SDS011;13082;52.374;4.946;2022-10-31T01:07:40;4.43;;;3.47;;
25091;SDS011;13082;52.374;4.946;2022-10-31T01:10:06;8.63;;;3.97;;
25091;SDS011;13082;52.374;4.946;2022-10-31T01:12:36;6.20;;;4.00;;
25091;SDS011;13082;52.374;4.946;2022-10-31T01:15:03;3.80;;;3.37;;
25091;SDS011;13082;52.374;4.946;2022-10-31T01:17:29;6.70;;;4.07;;
25091;SDS011;13082;52.374;4.946;2022-10-31T01:19:54;4.43;;;3.20;;
25091;SDS011;13082;52.374;4.946;2022-10-31T01:22:20;5.70;;;4.20;;
25091;SDS011;13082;52.374;4.946;2022-10-31T01:24:45;7.43;;;3.47;;
25091;SDS011;13082;52.374;4.946;2022-10-31T01:27:11;5.10;;;3.40;;
25091;SDS011;13082;52.374;4.946;2022-10-31T01:29:36;6.67;;;3.63;;
25091;SDS011;13082;52.374;4.946;2022-10-31T01:32:02;5.97;;;3.63;;
25091;SDS011;13082;52.374;4.946;2022-10-31T01:34:28;4.83;;;3.67;;
25091;SDS011;13082;52.374;4.946;2022-10-31T01:36:53;5.20;;;3.87;;
25091;SDS011;13082;52.374;4.946;2022-10-31T01:39:19;5.17;;;4.43;;
25091;SDS011;13082;52.374;4.946;2022-10-31T01:41:46;6.60;;;4.40;;
25091;SDS011;13082;52.374;4.946;2022-10-31T01:47:03;7.77;;;4.57;;
25091;SDS011;13082;52.374;4.946;2022-10-31T01:49:51;5.37;;;3.80;;
25091;SDS011;13082;52.374;4.946;2022-10-31T01:52:22;6.87;;;4.80;;
25091;SDS011;13082;52.374;4.946;2022-10-31T01:55:12;5.43;;;4.60;;
25091;SDS011;13082;52.374;4.946;2022-10-31T01:57:44;7.00;;;4.77;;
25091;SDS011;13082;52.374;4.946;2022-10-31T02:00:12;6.27;;;4.60;;
25091;SDS011;13082;52.374;4.946;2022-10-31T02:02:39;7.23;;;4.40;;
25091;SDS011;13082;52.374;4.946;2022-10-31T02:05:06;10.10;;;4.30;;
25091;SDS011;13082;52.374;4.946;2022-10-31T02:10:34;8.27;;;4.93;;
25091;SDS011;13082;52.374;4.946;2022-10-31T02:13:02;9.47;;;4.73;;
25091;SDS011;13082;52.374;4.946;2022-10-31T02:15:30;8.57;;;4.97;;
25091;SDS011;13082;52.374;4.946;2022-10-31T02:17:58;5.57;;;4.63;;
25091;SDS011;13082;52.374;4.946;2022-10-31T02:20:24;6.90;;;5.30;;
25091;SDS011;13082;52.374;4.946;2022-10-31T02:34:50;7.93;;;5.63;;
25091;SDS011;13082;52.374;4.946;2022-10-31T02:37:34;8.27;;;4.63;;
25091;SDS011;13082;52.374;4.946;2022-10-31T02:40:20;6.00;;;5.00;;
25091;SDS011;13082;52.374;4.946;2022-10-31T02:42:59;9.33;;;5.33;;
25091;SDS011;13082;52.374;4.946;2022-10-31T02:48:23;8.10;;;4.87;;
25091;SDS011;13082;52.374;4.946;2022-10-31T02:50:55;10.17;;;4.50;;
25091;SDS011;13082;52.374;4.946;2022-10-31T02:53:22;7.80;;;5.03;;
25091;SDS011;13082;52.374;4.946;2022-10-31T02:55:58;7.33;;;5.53;;
25091;SDS011;13082;52.374;4.946;2022-10-31T02:58:31;7.40;;;5.60;;
25091;SDS011;13082;52.374;4.946;2022-10-31T03:03:57;6.93;;;4.80;;
25091;SDS011;13082;52.374;4.946;2022-10-31T03:06:33;6.23;;;4.83;;
25091;SDS011;13082;52.374;4.946;2022-10-31T03:14:41;8.97;;;6.30;;
25091;SDS011;13082;52.374;4.946;2022-10-31T03:17:07;6.80;;;5.63;;
25091;SDS011;13082;52.374;4.946;2022-10-31T03:19:43;10.47;;;6.63;;
25091;SDS011;13082;52.374;4.946;2022-10-31T03:24:38;9.57;;;7.07;;
25091;SDS011;13082;52.374;4.946;2022-10-31T03:27:07;10.60;;;7.43;;
25091;SDS011;13082;52.374;4.946;2022-10-31T03:29:35;10.93;;;6.00;;
25091;SDS011;13082;52.374;4.946;2022-10-31T03:32:06;9.27;;;6.70;;
25091;SDS011;13082;52.374;4.946;2022-10-31T03:34:36;9.17;;;6.83;;
25091;SDS011;13082;52.374;4.946;2022-10-31T03:37:04;8.83;;;5.83;;
25091;SDS011;13082;52.374;4.946;2022-10-31T03:39:33;8.60;;;6.90;;
25091;SDS011;13082;52.374;4.946;2022-10-31T03:42:05;8.87;;;6.90;;
25091;SDS011;13082;52.374;4.946;2022-10-31T03:44:34;14.93;;;6.63;;
25091;SDS011;13082;52.374;4.946;2022-10-31T03:47:02;10.07;;;7.83;;
25091;SDS011;13082;52.374;4.946;2022-10-31T03:49:29;13.37;;;7.60;;
25091;SDS011;13082;52.374;4.946;2022-10-31T03:59:57;8.60;;;6.80;;
25091;SDS011;13082;52.374;4.946;2022-10-31T04:02:30;8.37;;;7.20;;
25091;SDS011;13082;52.374;4.946;2022-10-31T04:04:57;11.20;;;7.90;;
25091;SDS011;13082;52.374;4.946;2022-10-31T04:07:24;9.77;;;7.63;;
25091;SDS011;13082;52.374;4.946;2022-10-31T04:09:55;11.67;;;7.30;;
25091;SDS011;13082;52.374;4.946;2022-10-31T04:12:22;10.90;;;8.23;;
25091;SDS011;13082;52.374;4.946;2022-10-31T04:14:50;11.47;;;8.10;;
25091;SDS011;13082;52.374;4.946;2022-10-31T04:17:18;12.63;;;8.77;;
25091;SDS011;13082;52.374;4.946;2022-10-31T04:19:46;11.60;;;8.47;;
25091;SDS011;13082;52.374;4.946;2022-10-31T04:22:12;12.13;;;8.43;;
25091;SDS011;13082;52.374;4.946;2022-10-31T04:24:38;13.00;;;8.97;;
25091;SDS011;13082;52.374;4.946;2022-10-31T04:27:05;14.80;;;9.60;;
25091;SDS011;13082;52.374;4.946;2022-10-31T04:29:31;12.70;;;9.60;;
25091;SDS011;13082;52.374;4.946;2022-10-31T04:31:56;13.30;;;9.33;;
25091;SDS011;13082;52.374;4.946;2022-10-31T04:34:22;14.63;;;10.33;;
25091;SDS011;13082;52.374;4.946;2022-10-31T04:36:47;13.43;;;9.80;;
25091;SDS011;13082;52.374;4.946;2022-10-31T04:39:13;15.77;;;10.20;;
25091;SDS011;13082;52.374;4.946;2022-10-31T04:41:39;13.33;;;10.03;;
25091;SDS011;13082;52.374;4.946;2022-10-31T04:44:04;15.87;;;10.63;;
25091;SDS011;13082;52.374;4.946;2022-10-31T04:46:30;11.50;;;9.47;;
25091;SDS011;13082;52.374;4.946;2022-10-31T04:48:55;12.43;;;10.13;;
25091;SDS011;13082;52.374;4.946;2022-10-31T04:51:21;13.30;;;10.10;;
25091;SDS011;13082;52.374;4.946;2022-10-31T04:53:47;14.90;;;10.40;;
25091;SDS011;13082;52.374;4.946;2022-10-31T04:56:12;16.77;;;10.53;;
25091;SDS011;13082;52.374;4.946;2022-10-31T04:58:38;12.77;;;10.23;;
25091;SDS011;13082;52.374;4.946;2022-10-31T05:01:04;18.33;;;11.17;;
25091;SDS011;13082;52.374;4.946;2022-10-31T05:03:29;15.23;;;10.87;;
25091;SDS011;13082;52.374;4.946;2022-10-31T05:05:55;20.43;;;11.43;;
25091;SDS011;13082;52.374;4.946;2022-10-31T05:08:20;15.67;;;11.13;;
25091;SDS011;13082;52.374;4.946;2022-10-31T05:10:46;14.10;;;10.70;;
25091;SDS011;13082;52.374;4.946;2022-10-31T05:13:11;20.70;;;11.50;;
25091;SDS011;13082;52.374;4.946;2022-10-31T05:15:37;14.67;;;10.57;;
25091;SDS011;13082;52.374;4.946;2022-10-31T05:18:03;12.80;;;10.70;;
25091;SDS011;13082;52.374;4.946;2022-10-31T05:20:29;14.43;;;10.37;;
25091;SDS011;13082;52.374;4.946;2022-10-31T05:22:56;16.03;;;11.80;;
25091;SDS011;13082;52.374;4.946;2022-10-31T05:25:24;16.47;;;12.77;;
25091;SDS011;13082;52.374;4.946;2022-10-31T05:27:52;19.17;;;11.83;;
25091;SDS011;13082;52.374;4.946;2022-10-31T05:30:19;17.43;;;13.00;;
25091;SDS011;13082;52.374;4.946;2022-10-31T05:32:47;18.43;;;13.30;;
25091;SDS011;13082;52.374;4.946;2022-10-31T05:35:15;19.57;;;12.97;;
25091;SDS011;13082;52.374;4.946;2022-10-31T05:37:45;20.20;;;13.43;;
25091;SDS011;13082;52.374;4.946;2022-10-31T05:40:12;21.57;;;12.77;;
25091;SDS011;13082;52.374;4.946;2022-10-31T05:42:39;18.87;;;13.27;;
25091;SDS011;13082;52.374;4.946;2022-10-31T05:45:05;19.60;;;13.70;;
25091;SDS011;13082;52.374;4.946;2022-10-31T05:47:32;16.40;;;12.37;;
25091;SDS011;13082;52.374;4.946;2022-10-31T05:49:58;15.73;;;12.43;;
25091;SDS011;13082;52.374;4.946;2022-10-31T05:52:23;21.00;;;12.97;;
25091;SDS011;13082;52.374;4.946;2022-10-31T05:54:49;15.90;;;12.60;;
25091;SDS011;13082;52.374;4.946;2022-10-31T05:57:14;17.60;;;12.90;;
25091;SDS011;13082;52.374;4.946;2022-10-31T05:59:40;21.13;;;12.80;;
25091;SDS011;13082;52.374;4.946;2022-10-31T06:02:05;17.87;;;12.93;;
25091;SDS011;13082;52.374;4.946;2022-10-31T06:04:31;20.33;;;12.10;;
25091;SDS011;13082;52.374;4.946;2022-10-31T06:06:57;21.23;;;13.73;;
25091;SDS011;13082;52.374;4.946;2022-10-31T06:09:22;22.90;;;13.33;;
25091;SDS011;13082;52.374;4.946;2022-10-31T06:11:48;20.67;;;13.57;;
25091;SDS011;13082;52.374;4.946;2022-10-31T06:14:13;20.43;;;13.83;;
25091;SDS011;13082;52.374;4.946;2022-10-31T06:16:39;22.00;;;14.18;;
25091;SDS011;13082;52.374;4.946;2022-10-31T06:19:05;21.70;;;14.27;;
25091;SDS011;13082;52.374;4.946;2022-10-31T06:21:30;20.47;;;13.93;;
25091;SDS011;13082;52.374;4.946;2022-10-31T06:23:56;18.63;;;14.70;;
25091;SDS011;13082;52.374;4.946;2022-10-31T06:26:22;20.70;;;13.73;;
25091;SDS011;13082;52.374;4.946;2022-10-31T06:28:47;23.07;;;14.67;;
25091;SDS011;13082;52.374;4.946;2022-10-31T06:31:13;20.40;;;14.27;;
25091;SDS011;13082;52.374;4.946;2022-10-31T06:33:40;22.03;;;13.93;;
25091;SDS011;13082;52.374;4.946;2022-10-31T06:36:06;19.83;;;13.93;;
25091;SDS011;13082;52.374;4.946;2022-10-31T06:38:32;27.03;;;14.53;;
25091;SDS011;13082;52.374;4.946;2022-10-31T06:41:01;20.57;;;14.43;;
25091;SDS011;13082;52.374;4.946;2022-10-31T06:43:28;21.07;;;14.80;;
25091;SDS011;13082;52.374;4.946;2022-10-31T06:45:53;19.53;;;13.67;;
25091;SDS011;13082;52.374;4.946;2022-10-31T06:48:19;18.60;;;12.70;;
25091;SDS011;13082;52.374;4.946;2022-10-31T06:50:44;24.47;;;13.07;;
25091;SDS011;13082;52.374;4.946;2022-10-31T06:53:10;20.07;;;12.57;;
25091;SDS011;13082;52.374;4.946;2022-10-31T06:55:36;27.50;;;13.47;;
25091;SDS011;13082;52.374;4.946;2022-10-31T06:58:01;18.90;;;13.27;;
25091;SDS011;13082;52.374;4.946;2022-10-31T07:00:28;21.63;;;13.83;;
25091;SDS011;13082;52.374;4.946;2022-10-31T07:03:00;19.20;;;14.37;;
25091;SDS011;13082;52.374;4.946;2022-10-31T07:05:28;21.50;;;13.90;;
25091;SDS011;13082;52.374;4.946;2022-10-31T07:07:56;21.33;;;14.30;;
25091;SDS011;13082;52.374;4.946;2022-10-31T07:10:24;22.20;;;13.90;;
25091;SDS011;13082;52.374;4.946;2022-10-31T07:12:54;17.13;;;13.17;;
25091;SDS011;13082;52.374;4.946;2022-10-31T07:15:21;21.47;;;12.70;;
25091;SDS011;13082;52.374;4.946;2022-10-31T07:17:47;22.07;;;13.03;;
25091;SDS011;13082;52.374;4.946;2022-10-31T07:20:12;21.67;;;14.53;;
25091;SDS011;13082;52.374;4.946;2022-10-31T07:22:38;20.30;;;14.10;;
25091;SDS011;13082;52.374;4.946;2022-10-31T07:25:04;21.47;;;14.17;;
25091;SDS011;13082;52.374;4.946;2022-10-31T07:27:39;20.53;;;13.57;;
25091;SDS011;13082;52.374;4.946;2022-10-31T07:30:06;18.53;;;13.40;;
25091;SDS011;13082;52.374;4.946;2022-10-31T07:35:09;22.27;;;14.23;;
25091;SDS011;13082;52.374;4.946;2022-10-31T07:37:36;22.57;;;14.47;;
25091;SDS011;13082;52.374;4.946;2022-10-31T07:40:02;23.73;;;13.37;;
25091;SDS011;13082;52.374;4.946;2022-10-31T07:42:29;21.80;;;13.80;;
25091;SDS011;13082;52.374;4.946;2022-10-31T07:44:59;23.10;;;13.13;;
25091;SDS011;13082;52.374;4.946;2022-10-31T07:47:24;22.10;;;13.43;;
25091;SDS011;13082;52.374;4.946;2022-10-31T07:49:50;21.93;;;15.00;;
25091;SDS011;13082;52.374;4.946;2022-10-31T07:52:15;21.77;;;13.60;;
25091;SDS011;13082;52.374;4.946;2022-10-31T07:54:41;20.33;;;13.83;;
25091;SDS011;13082;52.374;4.946;2022-10-31T07:57:06;18.00;;;13.00;;
25091;SDS011;13082;52.374;4.946;2022-10-31T07:59:32;18.87;;;13.87;;
25091;SDS011;13082;52.374;4.946;2022-10-31T08:01:58;20.03;;;12.87;;
25091;SDS011;13082;52.374;4.946;2022-10-31T08:04:23;17.63;;;12.20;;
25091;SDS011;13082;52.374;4.946;2022-10-31T08:06:49;18.23;;;12.20;;
25091;SDS011;13082;52.374;4.946;2022-10-31T08:09:14;17.97;;;12.40;;
25091;SDS011;13082;52.374;4.946;2022-10-31T08:11:40;17.03;;;12.47;;
25091;SDS011;13082;52.374;4.946;2022-10-31T08:14:05;17.70;;;11.97;;
25091;SDS011;13082;52.374;4.946;2022-10-31T08:16:31;19.30;;;12.37;;
25091;SDS011;13082;52.374;4.946;2022-10-31T08:18:56;20.57;;;12.67;;
25091;SDS011;13082;52.374;4.946;2022-10-31T08:21:22;20.77;;;14.00;;
25091;SDS011;13082;52.374;4.946;2022-10-31T08:23:48;20.30;;;12.40;;
25091;SDS011;13082;52.374;4.946;2022-10-31T08:26:13;20.27;;;12.40;;
25091;SDS011;13082;52.374;4.946;2022-10-31T08:28:39;22.57;;;13.50;;
25091;SDS011;13082;52.374;4.946;2022-10-31T08:31:04;19.97;;;12.70;;
25091;SDS011;13082;52.374;4.946;2022-10-31T08:33:30;19.77;;;12.30;;
25091;SDS011;13082;52.374;4.946;2022-10-31T08:35:59;19.97;;;12.67;;
25091;SDS011;13082;52.374;4.946;2022-10-31T08:38:25;20.23;;;13.10;;
25091;SDS011;13082;52.374;4.946;2022-10-31T08:40:50;19.83;;;12.43;;
25091;SDS011;13082;52.374;4.946;2022-10-31T08:43:16;21.10;;;12.93;;
25091;SDS011;13082;52.374;4.946;2022-10-31T08:45:44;26.07;;;13.37;;
25091;SDS011;13082;52.374;4.946;2022-10-31T08:48:13;20.83;;;12.43;;
25091;SDS011;13082;52.374;4.946;2022-10-31T08:50:40;19.97;;;12.73;;
25091;SDS011;13082;52.374;4.946;2022-10-31T08:53:08;19.73;;;12.43;;
25091;SDS011;13082;52.374;4.946;2022-10-31T08:55:38;19.03;;;12.53;;
25091;SDS011;13082;52.374;4.946;2022-10-31T08:58:06;20.33;;;11.93;;
25091;SDS011;13082;52.374;4.946;2022-10-31T09:00:34;23.37;;;12.30;;
25091;SDS011;13082;52.374;4.946;2022-10-31T09:03:01;23.63;;;12.47;;
25091;SDS011;13082;52.374;4.946;2022-10-31T09:05:28;18.37;;;11.63;;
25091;SDS011;13082;52.374;4.946;2022-10-31T09:07:57;18.87;;;12.13;;
25091;SDS011;13082;52.374;4.946;2022-10-31T09:10:24;20.33;;;12.00;;
25091;SDS011;13082;52.374;4.946;2022-10-31T09:12:55;15.10;;;10.63;;
25091;SDS011;13082;52.374;4.946;2022-10-31T09:15:22;18.00;;;11.60;;
25091;SDS011;13082;52.374;4.946;2022-10-31T09:17:47;21.93;;;11.77;;
25091;SDS011;13082;52.374;4.946;2022-10-31T09:20:13;19.47;;;11.90;;
25091;SDS011;13082;52.374;4.946;2022-10-31T09:22:39;17.33;;;11.30;;
25091;SDS011;13082;52.374;4.946;2022-10-31T09:25:04;16.33;;;11.40;;
25091;SDS011;13082;52.374;4.946;2022-10-31T09:27:30;20.53;;;11.37;;
25091;SDS011;13082;52.374;4.946;2022-10-31T09:29:56;19.53;;;11.17;;
25091;SDS011;13082;52.374;4.946;2022-10-31T09:32:21;17.70;;;10.50;;
25091;SDS011;13082;52.374;4.946;2022-10-31T09:34:47;18.73;;;10.63;;
25091;SDS011;13082;52.374;4.946;2022-10-31T09:37:12;14.63;;;10.63;;
25091;SDS011;13082;52.374;4.946;2022-10-31T09:39:38;16.97;;;9.77;;
25091;SDS011;13082;52.374;4.946;2022-10-31T09:50:14;16.37;;;10.30;;
25091;SDS011;13082;52.374;4.946;2022-10-31T09:52:59;17.60;;;10.97;;
25091;SDS011;13082;52.374;4.946;2022-10-31T09:55:31;15.43;;;11.33;;
25091;SDS011;13082;52.374;4.946;2022-10-31T09:58:02;21.87;;;11.37;;
25091;SDS011;13082;52.374;4.946;2022-10-31T10:00:28;18.43;;;11.30;;
25091;SDS011;13082;52.374;4.946;2022-10-31T10:02:59;19.07;;;12.23;;
25091;SDS011;13082;52.374;4.946;2022-10-31T10:05:43;17.83;;;12.43;;
25091;SDS011;13082;52.374;4.946;2022-10-31T10:08:19;19.50;;;11.67;;
25091;SDS011;13082;52.374;4.946;2022-10-31T10:10:54;18.60;;;12.63;;
25091;SDS011;13082;52.374;4.946;2022-10-31T10:24:17;18.73;;;12.43;;
25091;SDS011;13082;52.374;4.946;2022-10-31T10:29:53;19.73;;;12.37;;
25091;SDS011;13082;52.374;4.946;2022-10-31T10:32:22;19.40;;;12.47;;
25091;SDS011;13082;52.374;4.946;2022-10-31T10:34:51;20.80;;;14.13;;
25091;SDS011;13082;52.374;4.946;2022-10-31T10:40:21;23.67;;;13.13;;
25091;SDS011;13082;52.374;4.946;2022-10-31T10:45:51;20.60;;;12.87;;
25091;SDS011;13082;52.374;4.946;2022-10-31T10:51:46;19.43;;;12.07;;
25091;SDS011;13082;52.374;4.946;2022-10-31T11:00:38;27.40;;;10.40;;
25091;SDS011;13082;52.374;4.946;2022-10-31T11:03:11;16.63;;;10.90;;
25091;SDS011;13082;52.374;4.946;2022-10-31T11:13:26;12.73;;;7.27;;
25091;SDS011;13082;52.374;4.946;2022-10-31T11:16:03;10.97;;;6.07;;
25091;SDS011;13082;52.374;4.946;2022-10-31T11:18:37;9.73;;;6.23;;
25091;SDS011;13082;52.374;4.946;2022-10-31T11:21:04;9.17;;;6.10;;
25091;SDS011;13082;52.374;4.946;2022-10-31T11:23:31;8.83;;;6.00;;
25091;SDS011;13082;52.374;4.946;2022-10-31T11:25:58;9.60;;;5.97;;
25091;SDS011;13082;52.374;4.946;2022-10-31T11:28:26;11.30;;;6.37;;
25091;SDS011;13082;52.374;4.946;2022-10-31T11:31:01;8.60;;;5.53;;
25091;SDS011;13082;52.374;4.946;2022-10-31T11:33:39;10.47;;;6.07;;
25091;SDS011;13082;52.374;4.946;2022-10-31T11:36:20;11.00;;;5.97;;
25091;SDS011;13082;52.374;4.946;2022-10-31T11:38:48;12.73;;;5.97;;
25091;SDS011;13082;52.374;4.946;2022-10-31T11:41:18;8.83;;;5.63;;
25091;SDS011;13082;52.374;4.946;2022-10-31T11:46:42;9.77;;;6.40;;
25091;SDS011;13082;52.374;4.946;2022-10-31T11:51:55;9.40;;;6.37;;
25091;SDS011;13082;52.374;4.946;2022-10-31T11:54:25;12.67;;;6.20;;
25091;SDS011;13082;52.374;4.946;2022-10-31T11:56:58;11.53;;;6.70;;
25091;SDS011;13082;52.374;4.946;2022-10-31T11:59:28;10.27;;;6.40;;
25091;SDS011;13082;52.374;4.946;2022-10-31T12:01:55;12.27;;;6.13;;
25091;SDS011;13082;52.374;4.946;2022-10-31T12:04:24;12.10;;;6.33;;
25091;SDS011;13082;52.374;4.946;2022-10-31T12:07:11;8.70;;;6.20;;
25091;SDS011;13082;52.374;4.946;2022-10-31T12:09:37;9.43;;;6.03;;
25091;SDS011;13082;52.374;4.946;2022-10-31T12:17:16;14.83;;;7.90;;
25091;SDS011;13082;52.374;4.946;2022-10-31T12:19:55;14.80;;;8.23;;
25091;SDS011;13082;52.374;4.946;2022-10-31T12:35:58;21.40;;;12.03;;
25091;SDS011;13082;52.374;4.946;2022-10-31T12:38:48;17.90;;;10.50;;
25091;SDS011;13082;52.374;4.946;2022-10-31T12:41:29;21.40;;;12.17;;
25091;SDS011;13082;52.374;4.946;2022-10-31T12:55:55;19.37;;;12.60;;
25091;SDS011;13082;52.374;4.946;2022-10-31T12:58:40;19.63;;;11.57;;
25091;SDS011;13082;52.374;4.946;2022-10-31T13:01:32;19.17;;;12.00;;
25091;SDS011;13082;52.374;4.946;2022-10-31T13:04:03;22.40;;;13.77;;
25091;SDS011;13082;52.374;4.946;2022-10-31T13:06:50;28.80;;;13.70;;
25091;SDS011;13082;52.374;4.946;2022-10-31T13:09:23;24.10;;;12.53;;
25091;SDS011;13082;52.374;4.946;2022-10-31T13:11:56;33.17;;;15.27;;
25091;SDS011;13082;52.374;4.946;2022-10-31T13:14:34;24.10;;;14.47;;
25091;SDS011;13082;52.374;4.946;2022-10-31T13:17:04;22.60;;;14.93;;
25091;SDS011;13082;52.374;4.946;2022-10-31T13:19:33;24.17;;;13.53;;
25091;SDS011;13082;52.374;4.946;2022-10-31T13:22:06;20.63;;;12.37;;
25091;SDS011;13082;52.374;4.946;2022-10-31T13:24:44;16.57;;;12.00;;
25091;SDS011;13082;52.374;4.946;2022-10-31T13:27:35;18.37;;;11.67;;
25091;SDS011;13082;52.374;4.946;2022-10-31T13:30:12;17.17;;;10.90;;
25091;SDS011;13082;52.374;4.946;2022-10-31T13:32:48;18.10;;;11.33;;
25091;SDS011;13082;52.374;4.946;2022-10-31T13:35:21;17.27;;;11.40;;
25091;SDS011;13082;52.374;4.946;2022-10-31T13:37:50;19.73;;;10.97;;
25091;SDS011;13082;52.374;4.946;2022-10-31T13:40:37;21.37;;;11.13;;
25091;SDS011;13082;52.374;4.946;2022-10-31T13:45:51;17.73;;;11.63;;
25091;SDS011;13082;52.374;4.946;2022-10-31T13:48:20;18.43;;;11.07;;
25091;SDS011;13082;52.374;4.946;2022-10-31T13:51:07;18.93;;;11.03;;
25091;SDS011;13082;52.374;4.946;2022-10-31T13:53:39;18.73;;;11.33;;
25091;SDS011;13082;52.374;4.946;2022-10-31T13:58:59;21.47;;;12.33;;
25091;SDS011;13082;52.374;4.946;2022-10-31T14:01:25;24.20;;;11.17;;
25091;SDS011;13082;52.374;4.946;2022-10-31T14:03:58;23.43;;;12.83;;
25091;SDS011;13082;52.374;4.946;2022-10-31T14:06:34;21.57;;;11.80;;
25091;SDS011;13082;52.374;4.946;2022-10-31T14:09:05;25.43;;;13.23;;
25091;SDS011;13082;52.374;4.946;2022-10-31T14:11:39;22.80;;;13.17;;
25091;SDS011;13082;52.374;4.946;2022-10-31T14:14:11;26.43;;;13.87;;
25091;SDS011;13082;52.374;4.946;2022-10-31T14:16:37;22.83;;;13.37;;
25091;SDS011;13082;52.374;4.946;2022-10-31T14:19:06;26.47;;;14.23;;
25091;SDS011;13082;52.374;4.946;2022-10-31T14:21:40;27.83;;;14.80;;
25091;SDS011;13082;52.374;4.946;2022-10-31T14:26:52;27.27;;;15.57;;
25091;SDS011;13082;52.374;4.946;2022-10-31T14:34:23;28.97;;;14.33;;
25091;SDS011;13082;52.374;4.946;2022-10-31T14:45:17;28.13;;;15.00;;
25091;SDS011;13082;52.374;4.946;2022-10-31T14:47:52;27.97;;;14.67;;
25091;SDS011;13082;52.374;4.946;2022-10-31T14:50:23;36.13;;;15.07;;
25091;SDS011;13082;52.374;4.946;2022-10-31T14:53:11;26.83;;;15.03;;
25091;SDS011;13082;52.374;4.946;2022-10-31T14:55:58;30.07;;;14.63;;
25091;SDS011;13082;52.374;4.946;2022-10-31T14:58:35;32.20;;;14.27;;
25091;SDS011;13082;52.374;4.946;2022-10-31T15:01:02;24.03;;;13.77;;
25091;SDS011;13082;52.374;4.946;2022-10-31T15:03:31;24.13;;;14.47;;
25091;SDS011;13082;52.374;4.946;2022-10-31T15:06:05;27.37;;;14.60;;
25091;SDS011;13082;52.374;4.946;2022-10-31T15:08:40;24.80;;;14.10;;
25091;SDS011;13082;52.374;4.946;2022-10-31T15:11:27;31.93;;;15.00;;
25091;SDS011;13082;52.374;4.946;2022-10-31T15:13:54;27.13;;;15.07;;
25091;SDS011;13082;52.374;4.946;2022-10-31T15:16:22;22.47;;;12.73;;
25091;SDS011;13082;52.374;4.946;2022-10-31T15:21:27;28.50;;;14.17;;
25091;SDS011;13082;52.374;4.946;2022-10-31T15:23:55;28.83;;;14.80;;
25091;SDS011;13082;52.374;4.946;2022-10-31T15:26:23;24.57;;;12.63;;
25091;SDS011;13082;52.374;4.946;2022-10-31T15:29:10;24.20;;;12.50;;
25091;SDS011;13082;52.374;4.946;2022-10-31T15:31:53;25.23;;;13.30;;
25091;SDS011;13082;52.374;4.946;2022-10-31T15:34:54;24.17;;;13.10;;
25091;SDS011;13082;52.374;4.946;2022-10-31T15:37:12;26.60;;;13.03;;
25091;SDS011;13082;52.374;4.946;2022-10-31T15:39:43;25.03;;;13.20;;
25091;SDS011;13082;52.374;4.946;2022-10-31T15:44:49;24.03;;;13.67;;
25091;SDS011;13082;52.374;4.946;2022-10-31T15:47:28;21.70;;;13.30;;
25091;SDS011;13082;52.374;4.946;2022-10-31T15:49:56;23.70;;;14.63;;
25091;SDS011;13082;52.374;4.946;2022-10-31T15:57:39;26.23;;;14.10;;
25091;SDS011;13082;52.374;4.946;2022-10-31T16:00:20;25.70;;;13.90;;
25091;SDS011;13082;52.374;4.946;2022-10-31T16:02:46;28.37;;;13.37;;
25091;SDS011;13082;52.374;4.946;2022-10-31T16:05:18;32.47;;;13.20;;
25091;SDS011;13082;52.374;4.946;2022-10-31T16:07:48;28.93;;;14.63;;
25091;SDS011;13082;52.374;4.946;2022-10-31T16:10:22;27.23;;;13.53;;
25091;SDS011;13082;52.374;4.946;2022-10-31T16:12:50;23.27;;;12.13;;
25091;SDS011;13082;52.374;4.946;2022-10-31T16:15:16;26.97;;;13.73;;
25091;SDS011;13082;52.374;4.946;2022-10-31T16:17:45;22.93;;;13.90;;
25091;SDS011;13082;52.374;4.946;2022-10-31T16:20:16;22.33;;;13.07;;
25091;SDS011;13082;52.374;4.946;2022-10-31T16:22:48;23.23;;;12.30;;
25091;SDS011;13082;52.374;4.946;2022-10-31T16:25:16;25.23;;;14.03;;
25091;SDS011;13082;52.374;4.946;2022-10-31T16:27:51;21.20;;;12.53;;
25091;SDS011;13082;52.374;4.946;2022-10-31T16:30:37;24.63;;;12.80;;
25091;SDS011;13082;52.374;4.946;2022-10-31T16:33:05;20.97;;;12.70;;
25091;SDS011;13082;52.374;4.946;2022-10-31T16:35:46;27.53;;;13.53;;
25091;SDS011;13082;52.374;4.946;2022-10-31T16:38:13;24.57;;;13.20;;
25091;SDS011;13082;52.374;4.946;2022-10-31T16:40:39;21.97;;;13.20;;
25091;SDS011;13082;52.374;4.946;2022-10-31T16:43:05;26.37;;;12.90;;
25091;SDS011;13082;52.374;4.946;2022-10-31T16:45:37;24.87;;;13.23;;
25091;SDS011;13082;52.374;4.946;2022-10-31T16:48:15;27.03;;;14.37;;
25091;SDS011;13082;52.374;4.946;2022-10-31T16:50:46;23.67;;;12.40;;
25091;SDS011;13082;52.374;4.946;2022-10-31T16:53:12;36.67;;;15.73;;
25091;SDS011;13082;52.374;4.946;2022-10-31T16:55:55;33.63;;;14.83;;
25091;SDS011;13082;52.374;4.946;2022-10-31T16:58:31;24.63;;;13.53;;
25091;SDS011;13082;52.374;4.946;2022-10-31T17:00:59;30.00;;;15.67;;
25091;SDS011;13082;52.374;4.946;2022-10-31T17:03:27;31.27;;;15.97;;
25091;SDS011;13082;52.374;4.946;2022-10-31T17:05:52;25.53;;;13.53;;
25091;SDS011;13082;52.374;4.946;2022-10-31T17:08:20;29.57;;;14.37;;
25091;SDS011;13082;52.374;4.946;2022-10-31T17:10:46;32.03;;;16.13;;
25091;SDS011;13082;52.374;4.946;2022-10-31T17:13:24;33.03;;;16.57;;
25091;SDS011;13082;52.374;4.946;2022-10-31T17:15:54;26.53;;;14.23;;
25091;SDS011;13082;52.374;4.946;2022-10-31T17:18:22;29.10;;;14.10;;